createdAt,value
2022-08-17T00:00:49.546Z,70.65
2022-08-17T00:03:27.315Z,70.72
2022-08-17T00:06:01.816Z,70.70
2022-08-17T00:08:36.053Z,70.76
2022-08-17T00:11:12.005Z,70.97
2022-08-17T00:13:49.948Z,71.18
2022-08-17T00:16:50.623Z,71.26
2022-08-17T00:19:21.665Z,71.20
2022-08-17T00:22:32.564Z,71.04
2022-08-17T00:24:52.783Z,71.15
2022-08-17T00:27:27.493Z,71.36
2022-08-17T00:30:02.197Z,71.51
2022-08-17T00:33:15.900Z,71.70
2022-08-17T00:35:38.589Z,72.01
2022-08-17T00:38:11.653Z,72.08
2022-08-17T00:40:49.565Z,72.19
2022-08-17T00:43:27.809Z,72.15
2022-08-17T00:46:00.191Z,72.15
2022-08-17T00:48:31.475Z,72.13
2022-08-17T00:51:16.255Z,72.24
2022-08-17T00:53:52.407Z,72.28
2022-08-17T00:56:30.636Z,72.26
2022-08-17T00:59:06.810Z,72.25
2022-08-17T01:01:41.927Z,72.31
2022-08-17T01:04:14.178Z,72.46
2022-08-17T01:06:52.512Z,72.40
2022-08-17T01:09:30.081Z,72.41
2022-08-17T01:12:03.028Z,72.30
2022-08-17T01:14:34.122Z,72.23
2022-08-17T01:17:06.231Z,72.12
2022-08-17T01:22:30.218Z,72.43
2022-08-17T01:25:04.411Z,72.73
2022-08-17T01:27:37.442Z,72.87
2022-08-17T01:30:57.225Z,73.08
2022-08-17T01:33:14.841Z,73.24
2022-08-17T01:35:45.664Z,72.93
2022-08-17T01:38:27.086Z,72.86
2022-08-17T01:41:05.026Z,72.74
2022-08-17T01:43:43.131Z,72.84
2022-08-17T01:46:21.925Z,72.99
2022-08-17T01:48:54.262Z,73.37
2022-08-17T01:51:26.050Z,73.55
2022-08-17T01:53:59.710Z,73.68
2022-08-17T01:56:35.756Z,73.64
2022-08-17T01:59:06.992Z,73.72
2022-08-17T02:01:40.349Z,74.08
2022-08-17T02:04:11.317Z,74.21
2022-08-17T02:06:53.554Z,74.44
2022-08-17T02:09:29.813Z,74.57
2022-08-17T02:12:39.054Z,74.69
2022-08-17T02:15:01.453Z,74.83
2022-08-17T02:17:42.747Z,74.69
2022-08-17T02:20:14.675Z,74.53
2022-08-17T02:22:48.601Z,74.41
2022-08-17T02:25:21.722Z,74.31
2022-08-17T02:27:52.874Z,74.21
2022-08-17T02:30:59.195Z,74.06
2022-08-17T02:33:18.270Z,74.09
2022-08-17T02:35:53.117Z,74.04
2022-08-17T02:38:28.455Z,74.06
2022-08-17T02:41:02.763Z,74.08
2022-08-17T02:43:34.173Z,74.23
2022-08-17T02:46:09.482Z,74.29
2022-08-17T02:48:45.827Z,74.33
2022-08-17T02:51:18.097Z,74.50
2022-08-17T02:54:03.909Z,74.87
2022-08-17T02:56:50.912Z,74.92
2022-08-17T02:59:28.333Z,74.90
2022-08-17T03:02:06.897Z,75.05
2022-08-17T03:04:43.101Z,75.15
2022-08-17T03:07:17.489Z,75.22
2022-08-17T03:09:50.073Z,75.37
2022-08-17T03:12:20.732Z,75.28
2022-08-17T03:14:53.564Z,75.33
2022-08-17T03:17:27.100Z,75.51
2022-08-17T03:20:08.579Z,75.51
2022-08-17T03:22:48.036Z,75.29
2022-08-17T03:25:34.428Z,75.03
2022-08-17T03:28:14.837Z,75.07
2022-08-17T03:30:51.210Z,75.04
2022-08-17T03:33:25.961Z,75.05
2022-08-17T03:36:00.736Z,75.26
2022-08-17T03:38:42.457Z,75.39
2022-08-17T03:41:16.253Z,75.60
2022-08-17T03:43:53.313Z,75.78
2022-08-17T03:46:43.993Z,75.90
2022-08-17T03:49:35.898Z,75.84
2022-08-17T03:52:26.893Z,75.53
2022-08-17T03:55:15.647Z,75.64
2022-08-17T03:57:46.158Z,75.85
2022-08-17T04:00:24.521Z,75.97
2022-08-17T04:02:57.433Z,76.18
2022-08-17T04:05:37.030Z,76.38
2022-08-17T04:08:17.620Z,76.44
2022-08-17T04:10:53.397Z,76.39
2022-08-17T04:13:25.982Z,76.34
2022-08-17T04:16:05.665Z,76.35
2022-08-17T04:18:38.352Z,76.43
2022-08-17T04:21:16.000Z,76.51
2022-08-17T04:23:46.835Z,76.69
2022-08-17T04:26:53.748Z,76.81
2022-08-17T04:29:13.002Z,76.97
2022-08-17T04:31:45.265Z,77.10
2022-08-17T04:34:19.580Z,77.08
2022-08-17T04:37:14.676Z,77.15
2022-08-17T04:40:07.166Z,77.34
2022-08-17T04:42:40.001Z,77.63
2022-08-17T04:45:19.380Z,77.69
2022-08-17T04:47:56.855Z,77.78
2022-08-17T04:50:29.552Z,77.96
2022-08-17T04:53:00.806Z,78.13
2022-08-17T04:55:34.032Z,78.21
2022-08-17T04:58:08.073Z,78.30
2022-08-17T05:00:41.742Z,78.29
2022-08-17T05:03:15.399Z,78.20
2022-08-17T05:05:49.780Z,78.00
2022-08-17T05:08:25.489Z,77.82
2022-08-17T05:10:59.798Z,77.78
2022-08-17T05:13:32.654Z,77.77
2022-08-17T05:16:06.803Z,77.90
2022-08-17T05:18:41.539Z,77.83
2022-08-17T05:21:22.166Z,77.67
2022-08-17T05:23:58.912Z,77.03
2022-08-17T05:26:31.232Z,76.56
2022-08-17T05:29:15.382Z,76.38
2022-08-17T05:31:58.368Z,75.71
2022-08-17T05:34:29.776Z,75.32
2022-08-17T05:37:04.575Z,75.16
2022-08-17T05:39:42.070Z,74.87
2022-08-17T05:42:13.187Z,74.83
2022-08-17T05:45:00.934Z,74.43
2022-08-17T05:47:33.493Z,74.24
2022-08-17T05:50:27.207Z,73.87
2022-08-17T05:53:17.653Z,73.66
2022-08-17T05:56:00.293Z,73.12
2022-08-17T05:58:43.903Z,73.14
2022-08-17T06:01:31.916Z,72.78
2022-08-17T06:04:19.705Z,72.57
2022-08-17T06:07:15.474Z,72.26
2022-08-17T06:13:00.701Z,70.66
2022-08-17T06:15:39.909Z,70.13
2022-08-17T06:18:15.938Z,69.40
2022-08-17T06:20:55.582Z,69.18
2022-08-17T06:23:31.472Z,68.77
2022-08-17T06:26:08.989Z,68.57
2022-08-17T06:28:43.599Z,68.44
2022-08-17T06:31:22.560Z,68.13
2022-08-17T06:33:52.979Z,68.11
2022-08-17T06:36:40.236Z,67.95
2022-08-17T06:39:26.786Z,67.68
2022-08-17T06:42:09.642Z,67.39
2022-08-17T06:45:08.391Z,67.04
2022-08-17T06:47:47.522Z,66.85
2022-08-17T06:50:22.806Z,66.19
2022-08-17T06:52:58.746Z,65.63
2022-08-17T06:55:37.888Z,65.38
2022-08-17T06:58:16.443Z,64.98
2022-08-17T07:00:49.628Z,64.58
2022-08-17T07:03:30.300Z,64.32
2022-08-17T07:06:06.749Z,64.20
2022-08-17T07:08:43.125Z,63.69
2022-08-17T07:11:17.204Z,63.58
2022-08-17T07:13:57.019Z,63.49
2022-08-17T07:16:33.762Z,63.58
2022-08-17T07:19:06.150Z,63.41
2022-08-17T07:21:50.957Z,63.24
2022-08-17T07:24:35.646Z,63.10
2022-08-17T07:27:09.589Z,63.30
2022-08-17T07:29:43.987Z,63.23
2022-08-17T07:32:18.651Z,63.18
2022-08-17T07:35:15.387Z,63.04
2022-08-17T07:37:51.529Z,62.66
2022-08-17T07:40:28.111Z,62.63
2022-08-17T07:43:21.832Z,62.23
2022-08-17T07:46:22.933Z,62.08
2022-08-17T07:48:55.512Z,62.39
2022-08-17T07:51:33.674Z,62.06
2022-08-17T07:54:22.373Z,61.06
2022-08-17T07:56:55.233Z,60.89
2022-08-17T07:59:33.260Z,60.62
2022-08-17T08:02:22.292Z,60.50
2022-08-17T08:05:12.230Z,60.42
2022-08-17T08:07:54.386Z,60.02
2022-08-17T08:10:35.554Z,59.24
2022-08-17T08:13:12.303Z,59.24
2022-08-17T08:15:54.024Z,58.49
2022-08-17T08:18:53.844Z,58.22
2022-08-17T08:21:44.968Z,58.11
2022-08-17T08:24:33.168Z,57.87
2022-08-17T08:27:12.908Z,57.37
2022-08-17T08:29:52.788Z,57.22
2022-08-17T08:32:37.916Z,57.82
2022-08-17T08:35:14.830Z,58.00
2022-08-17T08:37:53.753Z,58.05
2022-08-17T08:40:41.700Z,57.68
2022-08-17T08:43:28.201Z,57.16
2022-08-17T08:46:07.761Z,56.65
2022-08-17T08:49:45.157Z,56.45
2022-08-17T08:52:32.269Z,55.62
2022-08-17T08:55:09.253Z,55.54
2022-08-17T08:57:46.382Z,55.20
2022-08-17T09:00:20.137Z,54.64
2022-08-17T09:03:37.610Z,54.22
2022-08-17T09:06:38.903Z,53.69
2022-08-17T09:09:25.889Z,53.75
2022-08-17T09:12:06.677Z,53.92
2022-08-17T09:14:46.805Z,53.83
2022-08-17T09:17:22.100Z,53.03
2022-08-17T09:20:00.475Z,53.34
2022-08-17T09:22:38.154Z,53.32
2022-08-17T09:25:13.525Z,53.04
2022-08-17T09:27:54.470Z,52.07
2022-08-17T09:30:26.548Z,52.28
2022-08-17T09:33:00.895Z,51.92
2022-08-17T09:35:37.610Z,51.98
2022-08-17T09:38:20.786Z,50.86
2022-08-17T09:40:56.714Z,50.84
2022-08-17T09:43:33.500Z,50.73
2022-08-17T09:46:11.276Z,50.81
2022-08-17T09:48:46.513Z,51.01
2022-08-17T09:51:23.302Z,51.36
2022-08-17T09:53:54.347Z,50.72
2022-08-17T09:56:42.317Z,50.11
2022-08-17T09:59:37.126Z,49.74
2022-08-17T10:02:33.599Z,49.39
2022-08-17T10:05:08.888Z,48.90
2022-08-17T10:07:44.769Z,48.62
2022-08-17T10:10:24.977Z,48.04
2022-08-17T10:13:00.671Z,48.07
2022-08-17T10:15:49.586Z,47.29
2022-08-17T10:18:37.855Z,46.92
2022-08-17T10:21:30.040Z,46.82
2022-08-17T10:24:28.161Z,47.20
2022-08-17T10:27:04.444Z,46.94
2022-08-17T10:29:49.152Z,46.91
2022-08-17T10:32:32.283Z,47.69
2022-08-17T10:35:27.667Z,47.90
2022-08-17T10:38:24.527Z,48.17
2022-08-17T10:41:00.908Z,47.72
2022-08-17T10:43:42.077Z,47.93
2022-08-17T10:46:33.601Z,48.03
2022-08-17T10:49:30.477Z,47.23
2022-08-17T10:52:03.529Z,47.05
2022-08-17T10:54:46.531Z,46.80
2022-08-17T10:57:38.960Z,46.80
2022-08-17T11:00:15.946Z,46.67
2022-08-17T11:02:52.088Z,46.73
2022-08-17T11:05:28.639Z,46.33
2022-08-17T11:08:23.681Z,46.23
2022-08-17T11:11:08.763Z,46.30
2022-08-17T11:13:49.898Z,46.68
2022-08-17T11:16:39.897Z,46.17
2022-08-17T11:19:36.844Z,45.78
2022-08-17T11:22:35.267Z,44.78
2022-08-17T11:25:17.101Z,44.96
2022-08-17T11:27:53.622Z,44.58
2022-08-17T11:30:47.156Z,44.63
2022-08-17T11:33:53.757Z,44.29
2022-08-17T11:36:38.719Z,43.68
2022-08-17T11:39:38.949Z,43.58
2022-08-17T11:42:26.521Z,43.47
2022-08-17T11:45:00.356Z,42.99
2022-08-17T11:48:23.883Z,43.28
2022-08-17T11:51:27.049Z,42.94
2022-08-17T11:57:02.574Z,42.56
2022-08-17T12:00:01.098Z,42.27
2022-08-17T12:02:49.041Z,41.48
2022-08-17T12:05:39.318Z,41.76
2022-08-17T12:08:21.672Z,42.12
2022-08-17T12:11:08.411Z,41.86
2022-08-17T12:13:43.003Z,41.49
2022-08-17T12:16:18.737Z,41.00
2022-08-17T12:18:54.450Z,41.26
2022-08-17T12:21:38.663Z,41.18
2022-08-17T12:24:21.001Z,41.06
2022-08-17T12:26:58.290Z,40.55
2022-08-17T12:29:38.801Z,40.85
2022-08-17T12:32:18.671Z,41.41
2022-08-17T12:34:52.159Z,40.96
2022-08-17T12:37:27.820Z,40.99
2022-08-17T12:40:02.931Z,40.83
2022-08-17T12:42:37.319Z,39.87
2022-08-17T12:45:16.184Z,39.67
2022-08-17T12:47:46.710Z,39.63
2022-08-17T12:50:29.074Z,39.06
2022-08-17T12:53:02.512Z,38.92
2022-08-17T12:55:39.025Z,38.85
2022-08-17T12:58:14.747Z,38.07
2022-08-17T13:00:51.852Z,38.19
2022-08-17T13:03:26.491Z,38.15
2022-08-17T13:06:03.234Z,37.69
2022-08-17T13:08:36.092Z,37.58
2022-08-17T13:11:09.858Z,37.37
2022-08-17T13:13:42.670Z,37.35
2022-08-17T13:16:22.504Z,37.12
2022-08-17T13:18:55.896Z,36.91
2022-08-17T13:21:30.798Z,37.37
2022-08-17T13:24:04.167Z,37.07
2022-08-17T13:26:37.966Z,37.18
2022-08-17T13:29:18.581Z,36.75
2022-08-17T13:31:52.850Z,36.90
2022-08-17T13:34:47.572Z,37.11
2022-08-17T13:37:35.883Z,36.59
2022-08-17T13:40:30.364Z,36.82
2022-08-17T13:43:03.307Z,36.99
2022-08-17T13:45:52.298Z,36.90
2022-08-17T13:48:27.055Z,36.37
2022-08-17T13:51:23.421Z,36.71
2022-08-17T13:54:01.855Z,36.51
2022-08-17T13:56:41.663Z,36.78
2022-08-17T13:59:15.532Z,36.72
2022-08-17T14:01:53.493Z,36.99
2022-08-17T14:04:29.429Z,36.95
2022-08-17T14:07:02.912Z,36.66
2022-08-17T14:09:37.607Z,36.29
2022-08-17T14:12:12.457Z,36.77
2022-08-17T14:14:43.794Z,37.23
2022-08-17T14:17:14.512Z,36.92
2022-08-17T14:19:44.798Z,36.81
2022-08-17T14:22:28.410Z,36.75
2022-08-17T14:25:01.698Z,35.95
2022-08-17T14:27:34.114Z,35.98
2022-08-17T14:30:29.032Z,35.63
2022-08-17T14:33:02.207Z,35.66
2022-08-17T14:35:32.683Z,35.76
2022-08-17T14:38:03.886Z,35.91
2022-08-17T14:40:35.316Z,35.90
2022-08-17T14:43:05.828Z,35.70
2022-08-17T14:45:36.146Z,35.46
2022-08-17T14:48:08.508Z,34.37
2022-08-17T14:50:40.624Z,34.07
2022-08-17T14:53:17.259Z,33.86
2022-08-17T14:55:47.791Z,33.80
2022-08-17T14:58:19.575Z,32.91
2022-08-17T15:00:51.027Z,32.66
2022-08-17T15:03:22.755Z,32.58
2022-08-17T15:05:53.909Z,32.71
2022-08-17T15:08:24.281Z,31.88
2022-08-17T15:10:54.683Z,31.49
2022-08-17T15:13:27.101Z,31.13
2022-08-17T15:15:59.822Z,30.67
2022-08-17T15:18:30.825Z,30.66
2022-08-17T15:21:03.840Z,29.81
2022-08-17T15:23:34.142Z,29.71
2022-08-17T15:26:04.488Z,29.80
2022-08-17T15:28:34.927Z,29.91
2022-08-17T15:31:06.702Z,29.03
2022-08-17T15:33:37.118Z,28.13
2022-08-17T15:36:09.585Z,27.18
2022-08-17T15:38:40.303Z,26.33
2022-08-17T15:41:15.126Z,26.15
2022-08-17T15:43:46.242Z,26.66
2022-08-17T15:46:18.903Z,27.47
2022-08-17T15:48:51.239Z,27.16
2022-08-17T15:51:24.471Z,28.07
2022-08-17T15:53:56.800Z,28.47
2022-08-17T15:56:31.301Z,28.84
2022-08-17T15:59:02.147Z,28.64
2022-08-17T16:03:01.812Z,29.46
2022-08-17T16:04:29.627Z,29.52
2022-08-17T16:07:01.189Z,29.63
2022-08-17T16:09:31.772Z,31.08
2022-08-17T16:12:11.758Z,31.17
2022-08-17T16:14:42.456Z,32.18
2022-08-17T16:17:38.747Z,31.97
2022-08-17T16:20:05.296Z,32.16
2022-08-17T16:22:39.104Z,31.92
2022-08-17T16:25:13.847Z,31.86
2022-08-17T16:27:44.952Z,32.04
2022-08-17T16:30:18.190Z,32.66
2022-08-17T16:32:51.401Z,33.96
2022-08-17T16:35:25.200Z,34.60
2022-08-17T16:37:57.163Z,34.98
2022-08-17T16:40:31.230Z,35.60
2022-08-17T16:43:12.221Z,35.66
2022-08-17T16:45:42.766Z,35.54
2022-08-17T16:48:13.070Z,36.20
2022-08-17T16:50:43.662Z,35.67
2022-08-17T16:53:34.060Z,35.76
2022-08-17T16:56:05.169Z,36.77
2022-08-17T16:58:35.971Z,38.15
2022-08-17T17:01:09.412Z,39.42
2022-08-17T17:03:43.924Z,39.59
2022-08-17T17:06:26.006Z,39.79
2022-08-17T17:09:01.547Z,40.41
2022-08-17T17:11:36.620Z,40.52
2022-08-17T17:14:11.325Z,40.92
2022-08-17T17:16:46.444Z,41.23
2022-08-17T17:19:27.688Z,42.54
2022-08-17T17:22:14.949Z,42.68
2022-08-17T17:24:57.159Z,42.29
2022-08-17T17:27:36.542Z,43.11
2022-08-17T17:30:11.725Z,44.23
2022-08-17T17:32:48.438Z,44.52
2022-08-17T17:35:24.100Z,44.39
2022-08-17T17:37:58.295Z,44.65
2022-08-17T17:40:34.230Z,44.02
2022-08-17T17:43:37.071Z,44.87
2022-08-17T17:46:27.537Z,45.80
2022-08-17T17:48:59.592Z,46.62
2022-08-17T17:52:09.041Z,46.95
2022-08-17T17:54:40.183Z,47.22
2022-08-17T17:57:24.712Z,47.39
2022-08-17T18:00:04.716Z,47.43
2022-08-17T18:02:51.864Z,47.75
2022-08-17T18:05:48.871Z,47.79
2022-08-17T18:08:35.982Z,48.27
2022-08-17T18:11:24.173Z,48.80
2022-08-17T18:14:14.827Z,49.30
2022-08-17T18:16:47.449Z,49.67
2022-08-17T18:19:21.011Z,50.22
2022-08-17T18:21:56.641Z,50.61
2022-08-17T18:24:36.607Z,50.64
2022-08-17T18:27:23.267Z,50.95
2022-08-17T18:29:55.671Z,50.82
2022-08-17T18:32:35.853Z,51.04
2022-08-17T18:35:28.016Z,51.44
2022-08-17T18:38:20.320Z,51.54
2022-08-17T18:41:00.706Z,51.99
2022-08-17T18:43:43.881Z,51.81
2022-08-17T18:46:31.260Z,52.10
2022-08-17T18:49:04.886Z,52.04
2022-08-17T18:51:42.031Z,51.63
2022-08-17T18:54:25.605Z,51.34
2022-08-17T18:56:58.925Z,51.52
2022-08-17T18:59:39.057Z,52.23
2022-08-17T19:02:44.108Z,52.72
2022-08-17T19:05:32.096Z,53.37
2022-08-17T19:08:19.941Z,53.78
2022-08-17T19:10:54.308Z,53.62
2022-08-17T19:13:30.500Z,53.44
2022-08-17T19:16:14.176Z,53.47
2022-08-17T19:18:50.983Z,53.69
2022-08-17T19:21:26.672Z,54.16
2022-08-17T19:24:04.688Z,54.50
2022-08-17T19:26:53.473Z,54.78
2022-08-17T19:29:34.235Z,55.12
2022-08-17T19:32:07.832Z,55.66
2022-08-17T19:34:44.573Z,55.76
2022-08-17T19:37:25.887Z,55.93
2022-08-17T19:40:06.289Z,55.55
2022-08-17T19:42:49.978Z,55.29
2022-08-17T19:45:33.628Z,55.42
2022-08-17T19:48:18.912Z,55.79
2022-08-17T19:50:55.927Z,55.97
2022-08-17T19:54:03.700Z,56.11
2022-08-17T19:56:41.122Z,56.17
2022-08-17T19:59:17.391Z,56.31
2022-08-17T20:01:52.534Z,56.58
2022-08-17T20:04:37.212Z,56.62
2022-08-17T20:07:14.801Z,56.84
2022-08-17T20:09:53.276Z,56.72
2022-08-17T20:12:28.666Z,56.89
2022-08-17T20:15:04.649Z,57.09
2022-08-17T20:17:39.286Z,57.33
2022-08-17T20:20:20.914Z,57.48
2022-08-17T20:23:02.972Z,57.62
2022-08-17T20:25:43.971Z,57.97
2022-08-17T20:28:24.947Z,58.13
2022-08-17T20:30:58.015Z,58.42
2022-08-17T20:33:33.908Z,58.68
2022-08-17T20:36:17.919Z,58.75
2022-08-17T20:38:52.714Z,58.99
2022-08-17T20:41:25.796Z,59.15
2022-08-17T20:44:07.160Z,59.29
2022-08-17T20:46:57.684Z,59.44
2022-08-17T20:49:36.032Z,59.62
2022-08-17T20:52:10.164Z,59.54
2022-08-17T20:54:51.076Z,59.57
2022-08-17T20:57:48.560Z,59.69
2022-08-17T21:00:45.907Z,59.88
2022-08-17T21:03:51.236Z,59.38
2022-08-17T21:06:26.411Z,59.24
2022-08-17T21:09:19.287Z,59.27
2022-08-17T21:12:03.775Z,59.03
2022-08-17T21:14:56.387Z,58.83
2022-08-17T21:17:59.074Z,58.77
2022-08-17T21:20:35.518Z,58.65
2022-08-17T21:23:28.303Z,58.44
2022-08-17T21:26:25.554Z,58.24
2022-08-17T21:29:30.451Z,57.94
2022-08-17T21:32:24.473Z,57.56
2022-08-17T21:35:24.499Z,57.29
2022-08-17T21:38:02.802Z,57.21
2022-08-17T21:40:34.977Z,57.08
2022-08-17T21:43:23.626Z,57.06
2022-08-17T21:46:09.357Z,56.97
2022-08-17T21:48:48.244Z,56.87
2022-08-17T21:51:22.820Z,56.84
2022-08-17T21:53:57.229Z,56.78
2022-08-17T21:56:31.474Z,56.72
2022-08-17T21:59:05.687Z,56.79
2022-08-17T22:01:38.177Z,56.71
2022-08-17T22:04:21.873Z,56.72
2022-08-17T22:06:57.041Z,56.83
2022-08-17T22:09:31.995Z,56.93
2022-08-17T22:12:11.251Z,57.00
2022-08-17T22:14:52.064Z,57.05
2022-08-17T22:17:26.787Z,57.20
2022-08-17T22:20:00.592Z,57.43
2022-08-17T22:22:35.441Z,57.70
2022-08-17T22:25:09.742Z,57.99
2022-08-17T22:27:55.637Z,58.40
2022-08-17T22:30:35.909Z,58.84
2022-08-17T22:33:39.082Z,58.94
2022-08-17T22:36:30.992Z,59.27
2022-08-17T22:39:23.468Z,59.46
2022-08-17T22:41:59.619Z,59.78
2022-08-17T22:44:32.404Z,59.93
2022-08-17T22:47:25.290Z,60.26
2022-08-17T22:49:57.845Z,60.47
2022-08-17T22:52:34.435Z,60.67
2022-08-17T22:55:32.620Z,60.85
2022-08-17T22:58:28.340Z,61.15
2022-08-17T23:01:18.923Z,61.17
2022-08-17T23:03:58.115Z,61.13
2022-08-17T23:06:29.246Z,61.51
2022-08-17T23:08:59.666Z,61.74
2022-08-17T23:11:36.979Z,62.27
2022-08-17T23:14:19.771Z,62.34
2022-08-17T23:16:51.208Z,62.53
2022-08-17T23:19:23.741Z,62.52
2022-08-17T23:21:55.502Z,62.64
2022-08-17T23:24:28.333Z,62.85
2022-08-17T23:26:59.321Z,63.07
2022-08-17T23:29:30.412Z,63.09
2022-08-17T23:32:03.988Z,63.36
2022-08-17T23:34:35.161Z,63.40
2022-08-17T23:37:06.076Z,63.46
2022-08-17T23:39:36.829Z,63.77
2022-08-17T23:42:09.988Z,63.80
2022-08-17T23:44:43.763Z,64.05
2022-08-17T23:47:14.077Z,64.18
2022-08-17T23:49:45.724Z,64.42
2022-08-17T23:52:17.983Z,64.77
2022-08-17T23:54:49.462Z,64.89
2022-08-17T23:57:33.432Z,65.02
